Time;durP1;ratioP1;P1;durP2;ratioP2;P2;SDS_P1;SDS_P2;PMS_P1;PMS_P2;Temp;Humidity;BMP_temperature;BMP_pressure;BME280_temperature;BME280_humidity;BME280_pressure;Samples;Min_cycle;Max_cycle;Signal;HPM_P1;HPM_P2
2022/10/05 00:00:00;;;;;;;64.60;37.75;;;3.10;99.90;;;;;;5014989;28;20071;-69
2022/10/05 00:02:26;;;;;;;59.65;33.22;;;3.10;99.90;;;;;;5032964;28;20040;-74
2022/10/05 00:04:54;;;;;;;58.28;33.70;;;3.20;99.90;;;;;;5032672;28;20392;-70
2022/10/05 00:07:21;;;;;;;59.67;31.60;;;3.20;99.90;;;;;;5032700;28;20025;-74
2022/10/05 00:10:13;;;;;;;54.13;32.85;;;3.20;99.90;;;;;;5032668;28;20029;-74
2022/10/05 00:12:38;;;;;;;58.92;30.95;;;3.20;99.90;;;;;;5014887;28;20037;-70
2022/10/05 00:15:11;;;;;;;54.70;28.80;;;3.20;99.90;;;;;;5032639;28;20112;-74
2022/10/05 00:17:36;;;;;;;50.85;28.13;;;3.20;99.90;;;;;;5032663;28;20057;-69
2022/10/05 00:20:16;;;;;;;54.65;34.95;;;3.10;99.90;;;;;;5032201;28;20081;-74
2022/10/05 00:22:42;;;;;;;51.78;28.55;;;3.20;99.90;;;;;;5032732;28;20035;-70
2022/10/05 00:25:15;;;;;;;46.58;28.17;;;3.10;99.90;;;;;;5032460;28;20025;-74
2022/10/05 00:27:41;;;;;;;47.70;27.88;;;3.10;99.90;;;;;;5032570;28;20030;-74
2022/10/05 00:30:31;;;;;;;47.40;27.05;;;3.10;99.90;;;;;;5014892;28;20415;-74
2022/10/05 00:32:56;;;;;;;39.47;22.88;;;3.10;99.90;;;;;;5014750;28;20029;-74
2022/10/05 00:35:22;;;;;;;42.45;24.23;;;3.00;99.90;;;;;;5015133;28;20471;-70
2022/10/05 00:37:52;;;;;;;48.08;27.70;;;3.00;99.90;;;;;;5032426;28;20391;-74
2022/10/05 00:40:42;;;;;;;53.05;27.55;;;3.00;99.90;;;;;;5032336;28;20079;-74
2022/10/05 00:43:36;;;;;;;50.30;27.02;;;3.00;99.90;;;;;;5032536;28;20030;-70
2022/10/05 00:46:27;;;;;;;53.05;27.35;;;3.00;99.90;;;;;;5035904;28;20030;-70
2022/10/05 00:49:12;;;;;;;46.45;27.23;;;2.90;99.90;;;;;;5035051;28;20049;-74
2022/10/05 00:51:45;;;;;;;52.22;27.95;;;2.90;99.90;;;;;;5035699;28;20030;-74
2022/10/05 00:54:20;;;;;;;;;;;2.90;99.90;;;;;;5035829;28;20033;-70
2022/10/05 00:57:00;;;;;;;50.13;28.40;;;2.90;99.90;;;;;;5036000;28;20274;-74
2022/10/05 00:59:38;;;;;;;45.92;26.95;;;2.90;99.90;;;;;;5035512;28;20029;-70
2022/10/05 01:02:36;;;;;;;60.78;32.78;;;2.90;99.90;;;;;;5031939;28;20025;-74
2022/10/05 01:05:31;;;;;;;61.17;32.17;;;2.80;99.90;;;;;;4975655;28;20078;-70
2022/10/05 01:08:18;;;;;;;66.57;30.95;;;2.70;99.90;;;;;;5012153;28;20121;-74
2022/10/05 01:10:51;;;;;;;54.63;26.88;;;2.70;99.90;;;;;;5017591;28;20033;-74
2022/10/05 01:13:31;;;;;;;60.30;27.30;;;2.70;99.90;;;;;;5035408;28;20108;-74
2022/10/05 01:16:14;;;;;;;60.80;29.58;;;2.70;99.90;;;;;;5035466;28;20383;-69
2022/10/05 01:18:42;;;;;;;58.60;27.63;;;2.70;99.90;;;;;;5035465;28;20053;-74
2022/10/05 01:21:11;;;;;;;63.05;28.55;;;2.70;99.90;;;;;;5017475;28;20053;-70
2022/10/05 01:24:00;;;;;;;67.60;34.03;;;2.70;99.90;;;;;;5035288;28;20072;-70
2022/10/05 01:26:51;;;;;;;63.70;29.58;;;2.70;99.90;;;;;;5035111;28;20076;-74
2022/10/05 01:29:23;;;;;;;54.65;29.58;;;2.70;99.90;;;;;;5034959;28;20442;-69
2022/10/05 01:32:00;;;;;;;53.72;28.65;;;2.60;99.90;;;;;;5035325;28;20495;-74
2022/10/05 01:34:52;;;;;;;49.90;26.33;;;2.70;99.90;;;;;;5017097;28;20041;-69
2022/10/05 01:37:36;;;;;;;39.28;24.65;;;2.70;99.90;;;;;;5035147;28;20030;-70
2022/10/05 01:40:36;;;;;;;38.25;24.70;;;2.70;99.90;;;;;;5034545;28;20018;-73
2022/10/05 01:43:19;;;;;;;44.00;25.23;;;2.70;99.90;;;;;;5035003;28;20108;-73
2022/10/05 01:46:04;;;;;;;62.00;29.98;;;2.70;99.90;;;;;;5034743;28;20032;-73
2022/10/05 01:48:54;;;;;;;73.03;36.50;;;2.70;99.90;;;;;;5034982;28;20104;-73
2022/10/05 01:51:31;;;;;;;75.93;36.45;;;2.70;99.90;;;;;;5034623;28;20492;-73
2022/10/05 01:54:31;;;;;;;75.00;34.70;;;2.80;99.90;;;;;;5034625;28;20033;-73
2022/10/05 01:57:05;;;;;;;79.13;39.03;;;2.80;99.90;;;;;;5033918;28;20036;-69
2022/10/05 01:59:39;;;;;;;73.57;34.55;;;2.80;99.90;;;;;;5034526;28;20029;-73
2022/10/05 02:02:15;;;;;;;75.65;36.55;;;2.80;99.90;;;;;;5016871;28;20037;-73
2022/10/05 02:04:58;;;;;;;71.43;31.08;;;2.90;99.90;;;;;;5016532;28;20074;-71
2022/10/05 02:07:29;;;;;;;79.70;33.27;;;2.90;99.90;;;;;;5034586;28;20026;-70
2022/10/05 02:10:12;;;;;;;75.63;35.30;;;2.90;99.90;;;;;;5034359;28;20017;-73
2022/10/05 02:12:38;;;;;;;103.28;40.67;;;2.90;99.90;;;;;;5016587;28;20188;-69
2022/10/05 02:15:15;;;;;;;113.10;40.75;;;3.00;99.90;;;;;;5034089;28;20025;-70
2022/10/05 02:17:47;;;;;;;136.63;46.10;;;3.00;99.90;;;;;;5034325;28;20108;-69
2022/10/05 02:20:23;;;;;;;120.90;41.85;;;3.10;99.90;;;;;;5016095;28;20122;-69
2022/10/05 02:22:53;;;;;;;89.35;34.17;;;3.10;99.90;;;;;;5016453;28;20036;-70
2022/10/05 02:25:27;;;;;;;88.05;35.13;;;3.10;99.90;;;;;;5033964;28;20453;-70
2022/10/05 02:28:22;;;;;;;75.32;30.48;;;3.10;99.90;;;;;;5016345;28;20037;-69
2022/10/05 02:30:59;;;;;;;77.60;31.15;;;3.10;99.90;;;;;;5010259;28;20037;-73
2022/10/05 02:33:28;;;;;;;87.05;33.00;;;3.10;99.90;;;;;;5016281;28;20033;-73
2022/10/05 02:36:00;;;;;;;82.43;31.90;;;3.10;99.90;;;;;;5016025;28;20032;-73
2022/10/05 02:38:40;;;;;;;94.15;34.03;;;3.00;99.90;;;;;;5033845;28;20025;-73
2022/10/05 02:41:17;;;;;;;76.35;30.58;;;3.00;99.90;;;;;;5033657;28;20109;-70
2022/10/05 02:44:15;;;;;;;107.50;34.58;;;3.00;99.90;;;;;;5033848;28;20029;-73
2022/10/05 02:46:48;;;;;;;73.63;29.38;;;3.10;99.90;;;;;;5013908;28;20092;-69
2022/10/05 02:49:42;;;;;;;93.38;31.38;;;3.00;99.90;;;;;;5033751;28;20410;-70
2022/10/05 02:52:31;;;;;;;109.47;33.33;;;3.00;99.90;;;;;;5033534;28;20065;-69
2022/10/05 02:55:22;;;;;;;97.75;33.15;;;3.00;99.90;;;;;;5033458;28;20033;-73
2022/10/05 02:58:07;;;;;;;90.15;33.30;;;3.00;99.90;;;;;;5015876;28;20083;-73
2022/10/05 03:00:46;;;;;;;84.97;32.63;;;3.00;99.90;;;;;;5033112;28;20033;-69
2022/10/05 03:03:24;;;;;;;66.68;30.92;;;3.10;99.90;;;;;;5033553;28;20013;-73
2022/10/05 03:05:59;;;;;;;73.40;30.13;;;3.10;99.90;;;;;;5015556;28;20041;-73
2022/10/05 03:08:43;;;;;;;180.43;41.85;;;3.00;99.90;;;;;;5033345;28;20033;-69
2022/10/05 03:11:11;;;;;;;65.80;29.48;;;3.00;99.90;;;;;;5015569;28;20469;-74
2022/10/05 03:13:45;;;;;;;77.13;30.42;;;3.00;99.90;;;;;;5033362;28;20040;-74
2022/10/05 03:16:31;;;;;;;64.22;29.45;;;2.90;99.90;;;;;;5015353;28;20068;-74
2022/10/05 03:19:24;;;;;;;76.10;31.73;;;2.90;99.90;;;;;;5033368;28;20043;-73
2022/10/05 03:21:55;;;;;;;90.43;34.13;;;2.90;99.90;;;;;;5033037;28;20044;-69
2022/10/05 03:24:55;;;;;;;64.38;28.80;;;2.80;99.90;;;;;;5033146;28;20116;-74
2022/10/05 03:27:27;;;;;;;61.05;29.38;;;2.80;99.90;;;;;;5029266;28;20037;-73
2022/10/05 03:30:02;;;;;;;65.05;28.75;;;2.80;99.90;;;;;;5033030;28;20479;-74
2022/10/05 03:32:50;;;;;;;60.30;28.15;;;2.80;99.90;;;;;;5013346;28;20018;-74
2022/10/05 03:35:24;;;;;;;72.10;30.30;;;2.80;99.90;;;;;;5030919;28;20025;-73
2022/10/05 03:38:15;;;;;;;71.25;29.15;;;2.80;99.90;;;;;;5033121;28;20025;-74
2022/10/05 03:40:58;;;;;;;54.63;26.95;;;2.80;99.90;;;;;;5014787;28;20029;-69
2022/10/05 03:43:56;;;;;;;61.00;28.45;;;2.70;99.90;;;;;;5032939;28;20030;-71
2022/10/05 03:46:55;;;;;;;69.30;28.05;;;2.70;99.90;;;;;;5032709;28;20453;-74
2022/10/05 03:49:42;;;;;;;67.10;29.23;;;2.70;99.90;;;;;;5032897;28;20029;-74
2022/10/05 03:52:14;;;;;;;56.67;28.55;;;2.70;99.90;;;;;;5032568;28;20030;-74
2022/10/05 03:54:47;;;;;;;67.03;30.60;;;2.70;99.90;;;;;;5014843;28;20057;-69
2022/10/05 03:57:26;;;;;;;53.78;26.45;;;2.70;99.90;;;;;;5032637;28;20029;-74
2022/10/05 03:59:54;;;;;;;62.42;27.83;;;2.70;99.90;;;;;;5014998;28;20021;-69
2022/10/05 04:02:42;;;;;;;66.35;27.98;;;2.60;99.90;;;;;;5014859;28;20033;-70
2022/10/05 04:05:21;;;;;;;64.82;25.17;;;2.60;99.90;;;;;;5032638;28;20045;-69
2022/10/05 04:07:59;;;;;;;65.03;27.52;;;2.60;99.90;;;;;;5014923;28;20033;-74
2022/10/05 04:10:46;;;;;;;64.85;28.58;;;2.60;99.90;;;;;;5032465;28;20027;-69
2022/10/05 04:13:21;;;;;;;52.53;26.67;;;2.50;99.90;;;;;;5001632;28;20048;-69
2022/10/05 04:16:32;;;;;;;66.38;26.42;;;2.60;99.90;;;;;;4950276;28;20045;-71
2022/10/05 04:19:22;;;;;;;74.05;28.13;;;2.60;99.90;;;;;;4897628;29;20220;-69
2022/10/05 04:22:02;;;;;;;76.30;30.05;;;2.60;99.90;;;;;;4935067;28;20040;-74
2022/10/05 04:24:39;;;;;;;67.03;29.13;;;2.60;99.90;;;;;;4983766;28;20088;-69
2022/10/05 04:27:11;;;;;;;50.83;26.25;;;2.60;99.90;;;;;;5034130;28;20029;-68
2022/10/05 04:29:54;;;;;;;56.75;26.92;;;2.60;99.90;;;;;;5006268;28;20083;-74
2022/10/05 04:32:22;;;;;;;56.47;26.27;;;2.60;99.90;;;;;;4998797;28;20049;-69
2022/10/05 04:34:55;;;;;;;47.42;23.10;;;2.50;99.90;;;;;;5014855;28;20044;-69
2022/10/05 04:37:33;;;;;;;41.25;21.60;;;2.50;99.90;;;;;;5031097;28;20029;-73
2022/10/05 04:40:07;;;;;;;51.03;26.35;;;2.50;99.90;;;;;;5036164;28;20034;-69
2022/10/05 04:42:39;;;;;;;46.97;24.05;;;2.50;99.90;;;;;;5035760;28;20018;-69
2022/10/05 04:45:21;;;;;;;43.25;22.63;;;2.50;99.90;;;;;;5036007;28;20056;-69
2022/10/05 04:48:01;;;;;;;42.78;20.48;;;2.40;99.90;;;;;;5035859;28;20021;-69
2022/10/05 04:50:53;;;;;;;43.33;21.88;;;2.30;99.90;;;;;;5017932;28;20030;-69
2022/10/05 04:53:50;;;;;;;44.25;22.17;;;2.30;99.90;;;;;;5014576;28;20038;-74
2022/10/05 04:56:37;;;;;;;41.55;22.65;;;2.30;99.90;;;;;;5021856;28;20475;-74
2022/10/05 04:59:40;;;;;;;35.75;20.05;;;2.30;99.90;;;;;;5035661;28;20025;-69
2022/10/05 05:02:09;;;;;;;39.35;19.85;;;2.30;99.90;;;;;;5017729;28;20475;-74
2022/10/05 05:04:53;;;;;;;40.17;20.83;;;2.30;99.90;;;;;;5035739;28;20030;-73
2022/10/05 05:07:54;;;;;;;40.13;19.23;;;2.30;99.90;;;;;;5035121;28;20026;-69
2022/10/05 05:10:38;;;;;;;42.67;21.20;;;2.40;99.90;;;;;;5020908;28;20026;-70
2022/10/05 05:13:19;;;;;;;43.70;20.92;;;2.40;99.90;;;;;;5033437;28;20072;-69
2022/10/05 05:16:14;;;;;;;42.00;21.30;;;2.50;99.90;;;;;;5011996;28;20121;-69
2022/10/05 05:19:22;;;;;;;39.83;21.38;;;2.50;99.90;;;;;;5034318;28;20042;-68
2022/10/05 05:22:02;;;;;;;47.78;25.35;;;2.60;99.90;;;;;;5019033;28;20060;-73
2022/10/05 05:24:33;;;;;;;43.42;22.67;;;2.60;99.90;;;;;;5015986;28;20507;-73
2022/10/05 05:27:30;;;;;;;46.15;23.52;;;2.70;99.90;;;;;;5033087;28;20053;-72
2022/10/05 05:30:18;;;;;;;51.10;26.58;;;2.70;99.90;;;;;;4992922;28;20042;-73
2022/10/05 05:33:28;;;;;;;53.40;28.45;;;2.80;99.90;;;;;;5033467;28;20028;-73
2022/10/05 05:36:20;;;;;;;48.08;25.08;;;2.90;99.90;;;;;;5026685;28;20046;-73
2022/10/05 05:39:23;;;;;;;48.90;24.27;;;3.00;99.90;;;;;;5033834;28;20479;-68
2022/10/05 05:41:56;;;;;;;42.33;22.63;;;3.10;99.90;;;;;;5029824;28;20052;-68
2022/10/05 05:44:35;;;;;;;46.08;23.58;;;3.20;99.90;;;;;;5052844;28;20040;-73
2022/10/05 05:47:02;;;;;;;37.78;22.13;;;3.30;99.90;;;;;;5043109;28;20049;-73
2022/10/05 05:49:41;;;;;;;56.42;30.48;;;3.30;99.90;;;;;;5032582;28;20029;-72
2022/10/05 05:52:18;;;;;;;54.83;28.20;;;3.30;99.90;;;;;;5029366;28;20017;-73
2022/10/05 05:55:19;;;;;;;37.53;21.50;;;3.40;99.90;;;;;;5032216;28;20029;-73
2022/10/05 05:58:11;;;;;;;42.38;21.73;;;3.40;99.90;;;;;;5029831;28;20435;-68
2022/10/05 06:00:43;;;;;;;40.28;20.38;;;3.50;99.90;;;;;;5031982;28;20029;-69
2022/10/05 06:03:36;;;;;;;43.40;21.23;;;3.60;99.90;;;;;;5034162;28;20026;-69
2022/10/05 06:06:07;;;;;;;49.38;24.17;;;3.70;99.90;;;;;;5016991;28;20021;-69
2022/10/05 06:08:42;;;;;;;48.15;23.77;;;3.80;99.90;;;;;;5021042;28;20376;-68
2022/10/05 06:11:18;;;;;;;44.38;25.33;;;4.10;99.90;;;;;;5033767;28;20045;-68
2022/10/05 06:13:44;;;;;;;48.70;26.80;;;4.30;99.90;;;;;;5029078;28;20041;-68
2022/10/05 06:16:25;;;;;;;46.75;26.02;;;4.50;99.90;;;;;;5033636;28;20379;-69
2022/10/05 06:18:59;;;;;;;53.10;32.35;;;4.80;99.90;;;;;;5032157;28;20087;-68
2022/10/05 06:21:52;;;;;;;68.80;40.65;;;5.00;99.90;;;;;;5032327;28;20404;-68
2022/10/05 06:24:44;;;;;;;77.07;44.10;;;5.10;99.90;;;;;;5033548;28;20446;-72
2022/10/05 06:27:25;;;;;;;79.70;44.13;;;5.30;99.90;;;;;;4998377;28;20384;-69
2022/10/05 06:30:00;;;;;;;88.97;45.67;;;5.50;99.90;;;;;;5032275;28;20276;-70
2022/10/05 06:32:33;;;;;;;70.97;37.63;;;5.70;99.90;;;;;;5032644;28;20550;-68
2022/10/05 06:35:24;;;;;;;52.03;31.00;;;5.90;99.90;;;;;;5033601;28;20041;-68
2022/10/05 06:38:25;;;;;;;38.20;21.38;;;6.10;99.90;;;;;;5033242;28;20028;-68
2022/10/05 06:40:51;;;;;;;34.10;21.33;;;6.40;99.90;;;;;;5034163;28;20034;-73
2022/10/05 06:43:25;;;;;;;38.30;21.75;;;6.70;99.90;;;;;;5015775;28;20044;-68
2022/10/05 06:45:57;;;;;;;30.90;17.50;;;6.90;99.90;;;;;;5034033;28;20040;-68
2022/10/05 06:48:46;;;;;;;27.60;17.10;;;7.10;99.90;;;;;;5014147;28;20831;-73
2022/10/05 06:51:50;;;;;;;27.13;15.75;;;7.40;99.90;;;;;;5031676;28;20027;-73
2022/10/05 06:54:53;;;;;;;30.98;15.95;;;7.60;99.90;;;;;;4984545;28;20626;-69
2022/10/05 06:57:24;;;;;;;;;;;7.70;99.90;;;;;;5014850;28;20033;-73
2022/10/05 07:00:17;;;;;;;26.55;16.90;;;7.80;99.90;;;;;;5032370;28;19932;-73
2022/10/05 07:03:02;;;;;;;26.60;15.77;;;8.00;99.90;;;;;;5032892;28;20075;-68
2022/10/05 07:05:38;;;;;;;27.42;15.45;;;8.20;99.90;;;;;;5033578;28;20155;-73
2022/10/05 07:08:32;;;;;;;23.85;14.77;;;8.30;99.90;;;;;;5033403;28;20033;-71
2022/10/05 07:11:24;;;;;;;18.88;12.80;;;8.40;99.90;;;;;;5033551;28;20026;-76
2022/10/05 07:14:19;;;;;;;18.65;12.65;;;8.60;99.90;;;;;;5033123;28;20041;-71
2022/10/05 07:16:54;;;;;;;18.48;10.43;;;8.70;99.90;;;;;;5032524;28;20127;-70
2022/10/05 07:19:51;;;;;;;17.10;10.75;;;8.90;99.90;;;;;;5033157;28;20014;-71
2022/10/05 07:22:50;;;;;;;17.02;10.75;;;9.00;99.90;;;;;;5010329;28;20052;-74
2022/10/05 07:25:18;;;;;;;17.92;10.10;;;9.30;99.90;;;;;;5033104;28;20066;-74
2022/10/05 07:27:53;;;;;;;16.85;8.90;;;9.40;99.90;;;;;;5033104;28;20035;-69
2022/10/05 07:30:19;;;;;;;11.57;7.68;;;9.40;99.90;;;;;;5033108;28;20092;-74
2022/10/05 07:32:53;;;;;;;15.18;8.50;;;9.50;99.90;;;;;;5033104;28;20136;-69
2022/10/05 07:38:23;;;;;;;18.70;9.05;;;9.60;99.90;;;;;;5033444;28;20044;-69
2022/10/05 07:41:07;;;;;;;13.63;8.35;;;9.70;99.90;;;;;;5032956;28;20029;-68
2022/10/05 07:43:57;;;;;;;13.88;9.00;;;9.90;99.90;;;;;;5033251;28;20029;-68
2022/10/05 07:46:40;;;;;;;15.60;8.60;;;10.10;99.90;;;;;;5033152;28;20096;-74
2022/10/05 07:49:23;;;;;;;12.15;7.82;;;10.30;99.90;;;;;;5033027;28;20391;-68
2022/10/05 07:52:00;;;;;;;13.02;8.35;;;10.50;99.90;;;;;;5033018;28;20030;-69
2022/10/05 07:54:47;;;;;;;11.75;7.82;;;10.70;99.90;;;;;;5017137;28;20071;-73
2022/10/05 07:57:38;;;;;;;13.30;8.30;;;10.80;99.90;;;;;;5036985;28;20029;-76
2022/10/05 08:00:05;;;;;;;13.75;7.78;;;10.90;99.90;;;;;;5019118;28;20049;-68
2022/10/05 08:03:00;;;;;;;11.20;7.72;;;11.10;99.90;;;;;;5036994;28;20152;-68
2022/10/05 08:05:29;;;;;;;11.27;8.10;;;11.20;99.90;;;;;;5036904;28;20021;-74
2022/10/05 08:08:05;;;;;;;11.40;7.90;;;11.40;99.90;;;;;;5036807;28;20551;-68
2022/10/05 08:10:36;;;;;;;12.07;7.93;;;11.50;99.90;;;;;;5036820;28;20029;-74
2022/10/05 08:13:18;;;;;;;16.75;9.32;;;11.60;99.90;;;;;;5036698;28;20037;-68
2022/10/05 08:15:50;;;;;;;13.95;7.97;;;11.70;99.90;;;;;;5036792;28;20029;-74
2022/10/05 08:18:24;;;;;;;19.65;9.63;;;11.70;99.90;;;;;;5036593;28;20453;-68
2022/10/05 08:20:57;;;;;;;10.30;7.85;;;11.80;99.90;;;;;;5036188;28;20143;-74
2022/10/05 08:23:22;;;;;;;13.10;7.85;;;11.90;99.90;;;;;;5036893;28;20021;-74
2022/10/05 08:26:43;;;;;;;11.23;7.35;;;12.00;99.90;;;;;;5018745;28;20513;-69
2022/10/05 08:29:18;;;;;;;9.52;6.55;;;12.20;99.90;;;;;;5028025;28;20407;-68
2022/10/05 08:31:47;;;;;;;11.93;7.65;;;12.30;99.90;;;;;;5018741;28;20044;-68
2022/10/05 08:34:36;;;;;;;10.65;6.82;;;12.40;99.90;;;;;;5036332;28;20036;-68
2022/10/05 08:37:02;;;;;;;12.25;7.40;;;12.50;99.90;;;;;;5018558;28;20044;-68
2022/10/05 08:39:34;;;;;;;10.65;7.05;;;12.60;99.90;;;;;;5036310;28;20476;-74
2022/10/05 08:42:11;;;;;;;8.35;6.32;;;12.60;99.90;;;;;;5018476;28;20028;-69
2022/10/05 08:44:54;;;;;;;10.25;6.88;;;12.70;99.90;;;;;;5016481;28;20061;-68
2022/10/05 08:47:33;;;;;;;9.93;6.20;;;12.70;99.90;;;;;;5018275;28;20057;-74
2022/10/05 08:50:22;;;;;;;15.48;6.65;;;12.70;99.90;;;;;;5036065;28;20025;-68
2022/10/05 08:53:19;;;;;;;10.55;6.75;;;12.80;99.90;;;;;;5035243;28;20092;-74
2022/10/05 08:55:59;;;;;;;11.82;7.32;;;12.90;99.90;;;;;;5035920;28;20040;-74
2022/10/05 08:58:25;;;;;;;10.23;6.63;;;13.00;99.90;;;;;;5035953;28;20444;-68
2022/10/05 09:01:04;;;;;;;11.63;7.30;;;13.10;99.90;;;;;;5035854;28;20112;-68
2022/10/05 09:03:51;;;;;;;10.82;6.25;;;13.10;99.90;;;;;;5035946;28;20092;-74
2022/10/05 09:06:54;;;;;;;9.00;6.03;;;13.10;99.90;;;;;;5035539;28;20100;-68
2022/10/05 09:09:32;;;;;;;13.18;6.50;;;13.20;99.90;;;;;;5017912;28;20032;-68
2022/10/05 09:12:29;;;;;;;7.18;5.85;;;13.30;99.90;;;;;;5035692;28;20021;-68
2022/10/05 09:15:14;;;;;;;8.73;5.93;;;13.30;99.90;;;;;;5034936;28;20496;-73
2022/10/05 09:18:06;;;;;;;7.57;5.53;;;13.30;99.90;;;;;;5017740;28;20104;-68
2022/10/05 09:20:54;;;;;;;7.25;5.20;;;13.40;99.90;;;;;;5035248;28;20037;-68
2022/10/05 09:23:38;;;;;;;11.30;5.03;;;13.50;99.90;;;;;;5035420;28;20076;-68
2022/10/05 09:26:40;;;;;;;6.00;4.90;;;13.50;99.90;;;;;;5034726;28;20026;-69
2022/10/05 09:30:04;;;;;;;11.00;6.75;;;13.60;99.90;;;;;;5017352;28;20391;-74
2022/10/05 09:33:07;;;;;;;10.65;4.65;;;13.50;99.90;;;;;;4957704;28;20170;-74
2022/10/05 09:35:47;;;;;;;7.07;4.53;;;13.50;99.90;;;;;;4966360;28;20070;-68
2022/10/05 09:38:26;;;;;;;8.10;4.75;;;13.60;99.90;;;;;;5029619;28;20438;-74
2022/10/05 09:41:29;;;;;;;6.13;4.95;;;13.70;99.90;;;;;;5033664;28;20068;-68
2022/10/05 09:44:10;;;;;;;9.07;6.40;;;14.00;99.90;;;;;;5025929;28;20029;-68
2022/10/05 09:46:42;;;;;;;5.57;4.25;;;14.10;99.90;;;;;;5033195;28;20053;-69
2022/10/05 09:49:40;;;;;;;9.00;5.15;;;14.20;99.90;;;;;;5033144;28;20084;-74
2022/10/05 09:52:24;;;;;;;10.43;6.15;;;14.50;99.90;;;;;;4999026;28;20030;-74
2022/10/05 09:54:50;;;;;;;7.30;4.85;;;14.50;99.90;;;;;;5033160;28;20048;-74
2022/10/05 09:57:50;;;;;;;9.38;4.65;;;14.40;96.90;;;;;;5015743;28;20378;-74
2022/10/05 10:00:25;;;;;;;11.77;4.70;;;14.20;95.30;;;;;;5007209;28;20038;-68
2022/10/05 10:03:18;;;;;;;7.72;5.30;;;14.10;97.10;;;;;;5032804;28;20116;-74
2022/10/05 10:05:52;;;;;;;;;;;14.10;99.80;;;;;;5023996;28;20037;-73
2022/10/05 10:08:31;;;;;;;6.25;4.55;;;14.20;99.30;;;;;;5015298;28;19909;-69
2022/10/05 10:11:15;;;;;;;11.18;4.32;;;14.20;99.10;;;;;;5033331;28;20141;-69
2022/10/05 10:13:44;;;;;;;6.97;4.93;;;14.40;99.90;;;;;;5015623;28;20033;-74
2022/10/05 10:16:12;;;;;;;6.82;4.88;;;14.60;99.90;;;;;;5031898;28;20037;-74
2022/10/05 10:18:56;;;;;;;7.28;5.00;;;14.70;99.90;;;;;;5033202;28;20032;-74
2022/10/05 10:21:47;;;;;;;9.07;5.32;;;14.80;97.20;;;;;;5015084;28;20037;-74
2022/10/05 10:24:47;;;;;;;6.50;4.82;;;14.80;98.10;;;;;;5032468;28;20554;-74
2022/10/05 10:27:35;;;;;;;8.55;4.90;;;15.00;99.90;;;;;;5019888;28;20037;-74
2022/10/05 10:30:37;;;;;;;8.32;5.47;;;15.20;99.90;;;;;;5032832;28;20037;-74
2022/10/05 10:33:20;;;;;;;6.75;4.38;;;15.30;96.70;;;;;;5030601;28;20022;-73
2022/10/05 10:36:32;;;;;;;8.40;4.35;;;15.30;93.90;;;;;;5028988;28;20041;-74
2022/10/05 10:39:05;;;;;;;7.15;5.00;;;15.30;94.50;;;;;;5032905;28;20442;-74
2022/10/05 10:42:05;;;;;;;11.07;5.18;;;15.30;95.40;;;;;;5036433;28;20483;-74
2022/10/05 10:45:04;;;;;;;8.75;4.70;;;15.40;95.40;;;;;;5020441;28;20558;-74
2022/10/05 10:47:46;;;;;;;10.02;4.78;;;15.60;96.20;;;;;;5019205;28;20025;-74
2022/10/05 10:50:45;;;;;;;7.43;3.60;;;15.60;92.80;;;;;;5032167;28;20041;-74
2022/10/05 10:53:32;;;;;;;5.78;3.88;;;15.50;91.80;;;;;;5030047;28;20116;-74
2022/10/05 10:56:28;;;;;;;7.72;4.40;;;15.60;91.30;;;;;;5032576;28;20033;-74
2022/10/05 10:58:59;;;;;;;6.95;4.32;;;15.60;91.50;;;;;;5017238;28;20049;-68
2022/10/05 11:01:52;;;;;;;7.25;4.30;;;15.80;96.10;;;;;;5031462;28;20045;-74
2022/10/05 11:04:17;;;;;;;4.90;4.20;;;15.90;96.50;;;;;;5032213;28;20103;-74
2022/10/05 11:07:24;;;;;;;6.97;3.80;;;15.90;92.90;;;;;;5031558;28;20492;-74
2022/10/05 11:09:49;;;;;;;5.03;3.63;;;16.00;91.80;;;;;;4954769;28;20034;-74
2022/10/05 11:12:33;;;;;;;5.40;3.45;;;16.00;88.80;;;;;;4991728;28;20042;-69
2022/10/05 11:15:17;;;;;;;5.35;3.45;;;16.00;85.40;;;;;;4994548;28;20541;-68
2022/10/05 11:17:59;;;;;;;5.07;3.25;;;16.00;85.50;;;;;;5033247;28;20025;-74
2022/10/05 11:20:55;;;;;;;3.35;3.03;;;16.10;86.80;;;;;;5015175;28;20057;-68
2022/10/05 11:24:05;;;;;;;5.90;3.22;;;16.10;86.90;;;;;;5032741;28;20475;-74
2022/10/05 11:26:39;;;;;;;5.15;3.50;;;16.30;83.10;;;;;;5033134;28;20134;-74
2022/10/05 11:29:23;;;;;;;5.95;2.90;;;16.20;80.90;;;;;;5032592;28;20037;-68
2022/10/05 11:32:26;;;;;;;6.57;3.45;;;16.20;79.50;;;;;;5015307;28;20029;-69
2022/10/05 11:35:03;;;;;;;4.72;3.88;;;16.20;81.10;;;;;;5032713;28;20045;-68
2022/10/05 11:37:47;;;;;;;5.13;3.83;;;16.20;80.30;;;;;;5032851;28;20053;-68
2022/10/05 11:40:41;;;;;;;5.43;3.70;;;16.10;80.00;;;;;;5033130;28;20025;-74
2022/10/05 11:43:22;;;;;;;7.50;3.80;;;16.10;82.10;;;;;;5033116;28;20074;-74
2022/10/05 11:46:09;;;;;;;4.30;3.10;;;16.20;82.70;;;;;;5033245;28;20400;-68
2022/10/05 11:48:59;;;;;;;4.65;3.60;;;16.30;86.70;;;;;;5014710;28;20491;-74
2022/10/05 11:51:33;;;;;;;4.60;3.40;;;16.30;81.60;;;;;;5032144;28;20426;-74
2022/10/05 11:54:16;;;;;;;6.20;3.63;;;16.30;81.80;;;;;;5032797;28;20037;-73
2022/10/05 11:56:51;;;;;;;7.63;3.67;;;16.40;81.80;;;;;;5033289;28;20029;-74
2022/10/05 11:59:26;;;;;;;6.78;3.60;;;16.50;83.40;;;;;;5032918;28;20018;-70
2022/10/05 12:02:03;;;;;;;4.07;3.60;;;16.60;84.40;;;;;;5033077;28;20028;-69
2022/10/05 12:04:53;;;;;;;7.18;3.92;;;16.60;81.90;;;;;;5032901;28;20391;-74
2022/10/05 12:07:39;;;;;;;5.18;3.40;;;16.60;80.70;;;;;;5033071;28;20026;-68
2022/10/05 12:10:31;;;;;;;6.80;4.25;;;16.60;78.80;;;;;;5005503;28;20607;-74
2022/10/05 12:13:49;;;;;;;5.65;3.70;;;16.60;80.40;;;;;;5011458;28;20026;-75
2022/10/05 12:16:44;;;;;;;25.58;13.00;;;16.70;80.80;;;;;;5003770;28;20042;-74
2022/10/05 12:19:26;;;;;;;22.45;11.50;;;16.70;77.70;;;;;;5000247;28;20028;-74
2022/10/05 12:21:58;;;;;;;29.60;13.70;;;16.80;79.10;;;;;;5014609;28;20057;-74
2022/10/05 12:24:36;;;;;;;;;;;16.80;78.70;;;;;;5032723;28;20025;-74
2022/10/05 12:27:14;;;;;;;12.43;5.50;;;16.80;78.00;;;;;;5032342;28;19909;-74
2022/10/05 12:29:57;;;;;;;16.17;5.53;;;16.80;77.90;;;;;;5032259;28;20113;-74
2022/10/05 12:32:30;;;;;;;5.53;2.95;;;16.80;79.00;;;;;;5032100;28;20031;-74
2022/10/05 12:35:21;;;;;;;5.18;4.13;;;16.80;79.40;;;;;;5032323;28;20045;-74
2022/10/05 12:37:51;;;;;;;5.63;3.40;;;16.80;78.00;;;;;;5032348;28;20064;-74
2022/10/05 12:40:55;;;;;;;6.53;4.25;;;16.90;79.30;;;;;;5034045;28;20075;-73
2022/10/05 12:43:44;;;;;;;10.88;4.38;;;17.00;81.30;;;;;;4970957;28;20042;-74
2022/10/05 12:46:21;;;;;;;6.63;4.20;;;17.00;77.10;;;;;;4974848;28;20093;-69
2022/10/05 12:49:05;;;;;;;5.68;3.53;;;17.00;76.70;;;;;;5006330;28;20038;-74
2022/10/05 12:51:41;;;;;;;6.18;3.40;;;17.00;77.80;;;;;;5022601;28;20034;-74
2022/10/05 12:54:37;;;;;;;3.85;3.55;;;16.90;78.20;;;;;;5045339;28;20052;-69
2022/10/05 12:57:35;;;;;;;5.13;3.45;;;16.80;75.10;;;;;;5035474;28;20050;-74
2022/10/05 13:00:17;;;;;;;6.65;3.75;;;16.70;77.30;;;;;;5010055;28;20128;-74
2022/10/05 13:02:49;;;;;;;4.38;3.30;;;16.80;78.70;;;;;;5044308;28;20457;-71
2022/10/05 13:05:44;;;;;;;5.20;3.90;;;16.70;79.20;;;;;;5029408;28;20097;-74
2022/10/05 13:08:10;;;;;;;4.68;3.88;;;16.70;80.20;;;;;;5035673;28;20041;-75
2022/10/05 13:10:58;;;;;;;5.10;4.50;;;16.70;80.60;;;;;;5016804;28;20025;-74
2022/10/05 13:13:51;;;;;;;10.98;6.38;;;16.70;81.40;;;;;;5030298;28;20061;-74
2022/10/05 13:16:55;;;;;;;4.78;3.67;;;16.60;81.50;;;;;;5016663;28;20017;-68
2022/10/05 13:19:27;;;;;;;;;;;16.60;80.30;;;;;;5042212;28;20051;-74
2022/10/05 13:22:14;;;;;;;5.97;3.70;;;16.60;80.40;;;;;;5042912;28;19924;-69
2022/10/05 13:24:54;;;;;;;16.00;6.65;;;16.50;82.00;;;;;;5043454;28;20595;-69
2022/10/05 13:27:26;;;;;;;13.35;5.35;;;16.50;83.40;;;;;;5039334;28;20032;-69
2022/10/05 13:30:16;;;;;;;12.65;4.82;;;16.50;84.10;;;;;;5034290;28;20025;-74
2022/10/05 13:32:48;;;;;;;6.55;4.15;;;16.60;84.10;;;;;;5018220;28;20060;-74
2022/10/05 13:35:39;;;;;;;16.05;5.05;;;16.60;84.10;;;;;;5043446;28;20072;-74
2022/10/05 13:38:24;;;;;;;5.95;4.38;;;16.60;83.70;;;;;;5026472;28;20030;-74
2022/10/05 13:41:27;;;;;;;4.70;3.75;;;16.60;85.30;;;;;;5039203;28;20037;-74
2022/10/05 13:44:09;;;;;;;3.83;3.30;;;16.60;84.50;;;;;;4972913;28;20489;-74
2022/10/05 13:46:48;;;;;;;4.05;3.33;;;16.60;83.30;;;;;;5024989;28;20049;-69
2022/10/05 13:49:18;;;;;;;6.55;3.97;;;16.60;82.80;;;;;;5027849;28;20130;-69
2022/10/05 13:51:55;;;;;;;6.10;4.03;;;16.60;84.30;;;;;;5015164;28;20113;-69
2022/10/05 13:54:56;;;;;;;5.10;4.07;;;16.60;83.50;;;;;;5033325;28;20224;-69
2022/10/05 13:57:32;;;;;;;7.15;4.00;;;16.50;85.00;;;;;;5033272;28;20230;-69
2022/10/05 14:00:04;;;;;;;4.30;3.58;;;16.40;85.10;;;;;;5042482;28;20066;-75
2022/10/05 14:02:37;;;;;;;8.43;4.13;;;16.40;87.80;;;;;;5044477;28;20021;-69